Springfield, Canada
Current Conditions -  °F | °C
As of 2:00 AM on Wednesday 26 Nov 2014 (Local Time) from CYZX Reporting Station
Broken Clouds Broken Clouds  
Wind Chill: 40°   Ceiling: 23000
Heat Index: 45°   Visibility: 15mi
Dew Point: 37°   Wind: 9mph
Humidity: 76%   Direction: 270°W
Pressure: 30.03"   Gusts: NA
Location:  44.63°N, 64.85°W
Report Text: CYZX 260600Z 27008KT 15SM BKN230 07/03 A3003 RMK CI2 WNDY HILL 31011KT SLP169
Loading
Personal Weather Stations






























Interactive Weather Map New forecast layout! Learn more

10-Day Weather Forecast

Advertisements
Track Severe Weather on mobile